sensor_id;sensor_type;location;lat;lon;timestamp;temperature;humidity
45137;DHT22;30894;51.740;19.498;2022-07-29T00:00:56;11.40;68.40
45137;DHT22;30894;51.740;19.498;2022-07-29T00:03:23;11.40;68.50
45137;DHT22;30894;51.740;19.498;2022-07-29T00:05:49;11.40;68.60
45137;DHT22;30894;51.740;19.498;2022-07-29T00:08:15;11.30;68.70
45137;DHT22;30894;51.740;19.498;2022-07-29T00:10:42;11.20;68.80
45137;DHT22;30894;51.740;19.498;2022-07-29T00:13:07;11.20;69.00
45137;DHT22;30894;51.740;19.498;2022-07-29T00:15:33;11.10;69.00
45137;DHT22;30894;51.740;19.498;2022-07-29T00:18:00;11.00;69.10
45137;DHT22;30894;51.740;19.498;2022-07-29T00:20:26;11.00;69.30
45137;DHT22;30894;51.740;19.498;2022-07-29T00:22:52;10.90;69.40
45137;DHT22;30894;51.740;19.498;2022-07-29T00:25:19;10.80;69.50
45137;DHT22;30894;51.740;19.498;2022-07-29T00:27:45;10.70;69.60
45137;DHT22;30894;51.740;19.498;2022-07-29T00:30:13;10.70;69.70
45137;DHT22;30894;51.740;19.498;2022-07-29T00:32:39;10.60;69.80
45137;DHT22;30894;51.740;19.498;2022-07-29T00:35:06;10.60;70.00
45137;DHT22;30894;51.740;19.498;2022-07-29T00:37:51;10.50;70.00
45137;DHT22;30894;51.740;19.498;2022-07-29T00:40:17;10.50;70.10
45137;DHT22;30894;51.740;19.498;2022-07-29T00:42:45;10.40;70.10
45137;DHT22;30894;51.740;19.498;2022-07-29T00:45:16;10.40;70.20
45137;DHT22;30894;51.740;19.498;2022-07-29T00:47:42;10.40;70.20
45137;DHT22;30894;51.740;19.498;2022-07-29T00:50:09;10.40;70.30
45137;DHT22;30894;51.740;19.498;2022-07-29T00:52:39;10.30;70.30
45137;DHT22;30894;51.740;19.498;2022-07-29T00:55:08;10.30;70.40
45137;DHT22;30894;51.740;19.498;2022-07-29T00:57:36;10.20;70.50
45137;DHT22;30894;51.740;19.498;2022-07-29T01:00:09;10.20;70.60
45137;DHT22;30894;51.740;19.498;2022-07-29T01:02:36;10.10;70.60
45137;DHT22;30894;51.740;19.498;2022-07-29T01:05:06;10.10;71.40
45137;DHT22;30894;51.740;19.498;2022-07-29T01:07:34;10.10;70.80
45137;DHT22;30894;51.740;19.498;2022-07-29T01:10:03;10.00;70.80
45137;DHT22;30894;51.740;19.498;2022-07-29T01:12:30;10.00;70.90
45137;DHT22;30894;51.740;19.498;2022-07-29T01:15:03;9.90;71.00
45137;DHT22;30894;51.740;19.498;2022-07-29T01:29:41;9.70;71.30
45137;DHT22;30894;51.740;19.498;2022-07-29T01:32:20;9.70;71.30
45137;DHT22;30894;51.740;19.498;2022-07-29T01:35:04;9.70;71.40
45137;DHT22;30894;51.740;19.498;2022-07-29T01:40:29;9.60;71.50
45137;DHT22;30894;51.740;19.498;2022-07-29T01:43:13;9.60;71.60
45137;DHT22;30894;51.740;19.498;2022-07-29T01:45:47;9.60;71.70
45137;DHT22;30894;51.740;19.498;2022-07-29T01:48:37;9.50;71.70
45137;DHT22;30894;51.740;19.498;2022-07-29T01:51:16;9.50;71.80
45137;DHT22;30894;51.740;19.498;2022-07-29T01:53:55;9.50;71.80
45137;DHT22;30894;51.740;19.498;2022-07-29T01:56:42;9.50;71.80
45137;DHT22;30894;51.740;19.498;2022-07-29T01:59:10;9.40;71.90
45137;DHT22;30894;51.740;19.498;2022-07-29T02:01:39;9.40;72.00
45137;DHT22;30894;51.740;19.498;2022-07-29T02:04:07;9.40;72.00
45137;DHT22;30894;51.740;19.498;2022-07-29T02:06:38;9.30;72.00
45137;DHT22;30894;51.740;19.498;2022-07-29T02:09:06;9.30;72.10
45137;DHT22;30894;51.740;19.498;2022-07-29T02:11:34;9.30;72.20
45137;DHT22;30894;51.740;19.498;2022-07-29T02:14:01;9.30;72.20
45137;DHT22;30894;51.740;19.498;2022-07-29T02:16:31;9.30;72.20
45137;DHT22;30894;51.740;19.498;2022-07-29T02:19:00;9.30;72.20
45137;DHT22;30894;51.740;19.498;2022-07-29T02:21:28;9.20;72.20
45137;DHT22;30894;51.740;19.498;2022-07-29T02:23:56;9.20;72.30
45137;DHT22;30894;51.740;19.498;2022-07-29T02:26:25;9.20;72.40
45137;DHT22;30894;51.740;19.498;2022-07-29T02:28:55;9.20;72.40
45137;DHT22;30894;51.740;19.498;2022-07-29T02:31:25;9.20;72.20
45137;DHT22;30894;51.740;19.498;2022-07-29T02:33:54;9.30;72.10
45137;DHT22;30894;51.740;19.498;2022-07-29T02:36:22;9.40;71.90
45137;DHT22;30894;51.740;19.498;2022-07-29T02:38:49;9.40;71.70
45137;DHT22;30894;51.740;19.498;2022-07-29T02:41:23;9.40;71.70
45137;DHT22;30894;51.740;19.498;2022-07-29T02:43:56;9.40;71.70
45137;DHT22;30894;51.740;19.498;2022-07-29T02:46:29;9.40;71.80
45137;DHT22;30894;51.740;19.498;2022-07-29T02:49:16;9.40;71.90
45137;DHT22;30894;51.740;19.498;2022-07-29T02:51:57;9.40;71.80
45137;DHT22;30894;51.740;19.498;2022-07-29T02:54:39;9.40;71.90
45137;DHT22;30894;51.740;19.498;2022-07-29T02:57:11;9.40;71.90
45137;DHT22;30894;51.740;19.498;2022-07-29T02:59:42;9.40;71.80
45137;DHT22;30894;51.740;19.498;2022-07-29T03:02:09;9.50;71.70
45137;DHT22;30894;51.740;19.498;2022-07-29T03:04:37;9.50;71.70
45137;DHT22;30894;51.740;19.498;2022-07-29T03:07:05;9.50;71.80
45137;DHT22;30894;51.740;19.498;2022-07-29T03:09:32;9.50;71.70
45137;DHT22;30894;51.740;19.498;2022-07-29T03:11:59;9.50;71.70
45137;DHT22;30894;51.740;19.498;2022-07-29T03:14:26;9.40;71.70
45137;DHT22;30894;51.740;19.498;2022-07-29T03:16:53;9.40;71.80
45137;DHT22;30894;51.740;19.498;2022-07-29T03:19:20;9.50;71.80
45137;DHT22;30894;51.740;19.498;2022-07-29T03:21:47;9.60;71.70
45137;DHT22;30894;51.740;19.498;2022-07-29T03:24:34;9.70;71.60
45137;DHT22;30894;51.740;19.498;2022-07-29T03:27:00;9.80;71.50
45137;DHT22;30894;51.740;19.498;2022-07-29T03:29:28;9.80;71.30
45137;DHT22;30894;51.740;19.498;2022-07-29T03:31:54;9.90;71.30
45137;DHT22;30894;51.740;19.498;2022-07-29T03:34:20;9.90;71.20
45137;DHT22;30894;51.740;19.498;2022-07-29T03:36:46;10.00;71.20
45137;DHT22;30894;51.740;19.498;2022-07-29T03:39:17;10.00;71.20
45137;DHT22;30894;51.740;19.498;2022-07-29T03:41:48;10.10;71.30
45137;DHT22;30894;51.740;19.498;2022-07-29T03:44:16;10.10;71.20
45137;DHT22;30894;51.740;19.498;2022-07-29T03:46:44;10.20;71.20
45137;DHT22;30894;51.740;19.498;2022-07-29T03:49:12;10.20;71.10
45137;DHT22;30894;51.740;19.498;2022-07-29T03:51:40;10.30;71.10
45137;DHT22;30894;51.740;19.498;2022-07-29T03:54:06;10.30;71.10
45137;DHT22;30894;51.740;19.498;2022-07-29T03:56:35;10.40;71.10
45137;DHT22;30894;51.740;19.498;2022-07-29T03:59:04;10.40;71.10
45137;DHT22;30894;51.740;19.498;2022-07-29T04:01:33;10.50;71.10
45137;DHT22;30894;51.740;19.498;2022-07-29T04:04:03;10.60;71.10
45137;DHT22;30894;51.740;19.498;2022-07-29T04:06:40;10.60;71.00
45137;DHT22;30894;51.740;19.498;2022-07-29T04:09:08;10.80;71.10
45137;DHT22;30894;51.740;19.498;2022-07-29T04:11:34;10.90;71.00
45137;DHT22;30894;51.740;19.498;2022-07-29T04:14:01;10.90;70.90
45137;DHT22;30894;51.740;19.498;2022-07-29T04:16:27;11.10;70.90
45137;DHT22;30894;51.740;19.498;2022-07-29T04:18:53;11.10;70.70
45137;DHT22;30894;51.740;19.498;2022-07-29T04:21:19;11.20;70.70
45137;DHT22;30894;51.740;19.498;2022-07-29T04:23:45;11.30;70.70
45137;DHT22;30894;51.740;19.498;2022-07-29T04:26:19;11.40;70.70
45137;DHT22;30894;51.740;19.498;2022-07-29T04:28:45;11.50;70.60
45137;DHT22;30894;51.740;19.498;2022-07-29T04:31:12;11.70;70.50
45137;DHT22;30894;51.740;19.498;2022-07-29T04:33:39;12.00;70.20
45137;DHT22;30894;51.740;19.498;2022-07-29T04:36:05;12.30;69.80
45137;DHT22;30894;51.740;19.498;2022-07-29T04:38:31;12.60;69.30
45137;DHT22;30894;51.740;19.498;2022-07-29T04:40:57;12.90;68.70
45137;DHT22;30894;51.740;19.498;2022-07-29T04:43:23;13.30;68.40
45137;DHT22;30894;51.740;19.498;2022-07-29T04:45:50;13.60;68.60
45137;DHT22;30894;51.740;19.498;2022-07-29T04:48:16;14.00;67.60
45137;DHT22;30894;51.740;19.498;2022-07-29T04:50:42;14.30;67.20
45137;DHT22;30894;51.740;19.498;2022-07-29T04:53:08;14.70;66.80
45137;DHT22;30894;51.740;19.498;2022-07-29T04:55:34;15.10;66.30
45137;DHT22;30894;51.740;19.498;2022-07-29T04:58:01;15.70;65.80
45137;DHT22;30894;51.740;19.498;2022-07-29T05:00:28;16.10;65.20
45137;DHT22;30894;51.740;19.498;2022-07-29T05:02:54;16.50;64.60
45137;DHT22;30894;51.740;19.498;2022-07-29T05:05:20;16.90;64.20
45137;DHT22;30894;51.740;19.498;2022-07-29T05:07:46;17.30;63.80
45137;DHT22;30894;51.740;19.498;2022-07-29T05:10:12;17.70;63.10
45137;DHT22;30894;51.740;19.498;2022-07-29T05:12:38;18.10;62.60
45137;DHT22;30894;51.740;19.498;2022-07-29T05:15:04;18.60;62.20
45137;DHT22;30894;51.740;19.498;2022-07-29T05:17:31;18.90;61.80
45137;DHT22;30894;51.740;19.498;2022-07-29T05:19:56;19.30;61.40
45137;DHT22;30894;51.740;19.498;2022-07-29T05:22:22;19.70;61.00
45137;DHT22;30894;51.740;19.498;2022-07-29T05:24:48;20.10;60.60
45137;DHT22;30894;51.740;19.498;2022-07-29T05:27:14;20.50;60.10
45137;DHT22;30894;51.740;19.498;2022-07-29T05:29:40;20.90;59.80
45137;DHT22;30894;51.740;19.498;2022-07-29T05:32:06;21.10;59.50
45137;DHT22;30894;51.740;19.498;2022-07-29T05:34:33;21.40;59.40
45137;DHT22;30894;51.740;19.498;2022-07-29T05:36:59;21.60;59.20
45137;DHT22;30894;51.740;19.498;2022-07-29T05:39:25;21.80;59.20
45137;DHT22;30894;51.740;19.498;2022-07-29T05:41:51;22.00;59.20
45137;DHT22;30894;51.740;19.498;2022-07-29T05:44:17;22.10;59.10
45137;DHT22;30894;51.740;19.498;2022-07-29T05:46:43;22.30;59.00
45137;DHT22;30894;51.740;19.498;2022-07-29T05:49:09;22.60;59.00
45137;DHT22;30894;51.740;19.498;2022-07-29T05:51:35;22.90;58.70
45137;DHT22;30894;51.740;19.498;2022-07-29T05:54:01;23.10;58.60
45137;DHT22;30894;51.740;19.498;2022-07-29T05:56:28;23.40;58.40
45137;DHT22;30894;51.740;19.498;2022-07-29T05:58:54;23.60;58.10
45137;DHT22;30894;51.740;19.498;2022-07-29T06:01:22;24.00;57.90
45137;DHT22;30894;51.740;19.498;2022-07-29T06:03:48;24.30;57.70
45137;DHT22;30894;51.740;19.498;2022-07-29T06:06:14;24.60;57.40
45137;DHT22;30894;51.740;19.498;2022-07-29T06:08:40;24.90;57.10
45137;DHT22;30894;51.740;19.498;2022-07-29T06:11:06;25.30;56.90
45137;DHT22;30894;51.740;19.498;2022-07-29T06:13:34;25.60;56.60
45137;DHT22;30894;51.740;19.498;2022-07-29T06:16:00;25.90;56.40
45137;DHT22;30894;51.740;19.498;2022-07-29T06:18:26;26.20;56.20
45137;DHT22;30894;51.740;19.498;2022-07-29T06:20:53;26.50;56.10
45137;DHT22;30894;51.740;19.498;2022-07-29T06:23:20;26.70;55.80
45137;DHT22;30894;51.740;19.498;2022-07-29T06:25:46;27.00;55.70
45137;DHT22;30894;51.740;19.498;2022-07-29T06:28:12;27.40;55.50
45137;DHT22;30894;51.740;19.498;2022-07-29T06:30:39;27.50;55.30
45137;DHT22;30894;51.740;19.498;2022-07-29T06:33:05;27.80;55.20
45137;DHT22;30894;51.740;19.498;2022-07-29T06:35:34;28.00;55.00
45137;DHT22;30894;51.740;19.498;2022-07-29T06:38:04;28.10;54.80
45137;DHT22;30894;51.740;19.498;2022-07-29T06:40:30;27.90;55.10
45137;DHT22;30894;51.740;19.498;2022-07-29T06:43:15;27.60;55.50
45137;DHT22;30894;51.740;19.498;2022-07-29T06:45:41;27.50;55.80
45137;DHT22;30894;51.740;19.498;2022-07-29T06:48:09;27.50;55.80
45137;DHT22;30894;51.740;19.498;2022-07-29T06:50:35;27.70;55.90
45137;DHT22;30894;51.740;19.498;2022-07-29T06:53:01;28.20;55.50
45137;DHT22;30894;51.740;19.498;2022-07-29T06:55:27;28.80;55.00
45137;DHT22;30894;51.740;19.498;2022-07-29T06:57:53;29.40;54.50
45137;DHT22;30894;51.740;19.498;2022-07-29T07:00:19;29.70;54.10
45137;DHT22;30894;51.740;19.498;2022-07-29T07:02:45;29.80;53.90
45137;DHT22;30894;51.740;19.498;2022-07-29T07:05:12;29.90;53.80
45137;DHT22;30894;51.740;19.498;2022-07-29T07:07:37;30.20;53.70
45137;DHT22;30894;51.740;19.498;2022-07-29T07:10:04;30.40;53.50
45137;DHT22;30894;51.740;19.498;2022-07-29T07:12:30;30.50;53.40
45137;DHT22;30894;51.740;19.498;2022-07-29T07:14:56;30.80;53.30
45137;DHT22;30894;51.740;19.498;2022-07-29T07:17:23;31.10;52.90
45137;DHT22;30894;51.740;19.498;2022-07-29T07:19:50;31.10;52.80
45137;DHT22;30894;51.740;19.498;2022-07-29T07:22:15;31.10;52.80
45137;DHT22;30894;51.740;19.498;2022-07-29T07:24:41;31.40;52.80
45137;DHT22;30894;51.740;19.498;2022-07-29T07:27:08;31.90;52.50
45137;DHT22;30894;51.740;19.498;2022-07-29T07:29:33;32.20;52.10
45137;DHT22;30894;51.740;19.498;2022-07-29T07:31:59;32.40;52.00
45137;DHT22;30894;51.740;19.498;2022-07-29T07:34:26;32.70;51.70
45137;DHT22;30894;51.740;19.498;2022-07-29T07:36:51;33.00;51.40
45137;DHT22;30894;51.740;19.498;2022-07-29T07:39:18;33.40;51.30
45137;DHT22;30894;51.740;19.498;2022-07-29T07:41:44;33.70;50.90
45137;DHT22;30894;51.740;19.498;2022-07-29T07:44:10;33.70;50.70
45137;DHT22;30894;51.740;19.498;2022-07-29T07:46:36;33.60;50.90
45137;DHT22;30894;51.740;19.498;2022-07-29T07:49:03;33.60;51.00
45137;DHT22;30894;51.740;19.498;2022-07-29T07:51:29;33.60;51.00
45137;DHT22;30894;51.740;19.498;2022-07-29T07:53:54;33.60;51.00
45137;DHT22;30894;51.740;19.498;2022-07-29T07:56:20;33.70;50.80
45137;DHT22;30894;51.740;19.498;2022-07-29T07:58:47;33.60;50.80
45137;DHT22;30894;51.740;19.498;2022-07-29T08:01:13;33.50;51.00
45137;DHT22;30894;51.740;19.498;2022-07-29T08:03:40;33.00;51.30
45137;DHT22;30894;51.740;19.498;2022-07-29T08:06:06;32.70;51.70
45137;DHT22;30894;51.740;19.498;2022-07-29T08:08:32;32.40;52.00
45137;DHT22;30894;51.740;19.498;2022-07-29T08:10:58;32.10;52.30
45137;DHT22;30894;51.740;19.498;2022-07-29T08:13:26;31.70;52.70
45137;DHT22;30894;51.740;19.498;2022-07-29T08:15:56;31.40;53.00
45137;DHT22;30894;51.740;19.498;2022-07-29T08:18:28;31.00;53.30
45137;DHT22;30894;51.740;19.498;2022-07-29T08:20:55;30.60;53.80
45137;DHT22;30894;51.740;19.498;2022-07-29T08:23:21;30.20;54.10
45137;DHT22;30894;51.740;19.498;2022-07-29T08:25:49;29.90;54.30
45137;DHT22;30894;51.740;19.498;2022-07-29T08:28:16;29.80;54.60
45137;DHT22;30894;51.740;19.498;2022-07-29T08:30:43;29.70;54.70
45137;DHT22;30894;51.740;19.498;2022-07-29T08:33:09;29.60;54.70
45137;DHT22;30894;51.740;19.498;2022-07-29T08:35:36;29.50;54.80
45137;DHT22;30894;51.740;19.498;2022-07-29T08:38:01;29.80;54.70
45137;DHT22;30894;51.740;19.498;2022-07-29T08:40:29;30.50;54.10
45137;DHT22;30894;51.740;19.498;2022-07-29T08:42:55;31.30;53.10
45137;DHT22;30894;51.740;19.498;2022-07-29T08:45:22;32.10;52.30
45137;DHT22;30894;51.740;19.498;2022-07-29T08:47:49;32.30;51.60
45137;DHT22;30894;51.740;19.498;2022-07-29T08:50:15;32.50;51.50
45137;DHT22;30894;51.740;19.498;2022-07-29T08:52:41;32.60;51.30
45137;DHT22;30894;51.740;19.498;2022-07-29T08:55:09;33.10;50.90
45137;DHT22;30894;51.740;19.498;2022-07-29T08:57:36;33.60;50.40
45137;DHT22;30894;51.740;19.498;2022-07-29T09:00:07;34.10;50.00
45137;DHT22;30894;51.740;19.498;2022-07-29T09:02:42;34.60;49.50
45137;DHT22;30894;51.740;19.498;2022-07-29T09:05:11;35.40;49.10
45137;DHT22;30894;51.740;19.498;2022-07-29T09:07:39;35.80;48.60
45137;DHT22;30894;51.740;19.498;2022-07-29T09:10:08;35.70;48.30
45137;DHT22;30894;51.740;19.498;2022-07-29T09:12:34;35.40;48.50
45137;DHT22;30894;51.740;19.498;2022-07-29T09:15:02;35.10;48.90
45137;DHT22;30894;51.740;19.498;2022-07-29T09:17:42;35.10;49.10
45137;DHT22;30894;51.740;19.498;2022-07-29T09:20:19;35.50;48.80
45137;DHT22;30894;51.740;19.498;2022-07-29T09:22:47;35.80;48.60
45137;DHT22;30894;51.740;19.498;2022-07-29T09:25:35;36.30;48.30
45137;DHT22;30894;51.740;19.498;2022-07-29T09:30:57;37.20;47.40
45137;DHT22;30894;51.740;19.498;2022-07-29T09:33:31;37.10;47.40
45137;DHT22;30894;51.740;19.498;2022-07-29T09:36:04;36.90;47.40
45137;DHT22;30894;51.740;19.498;2022-07-29T09:38:32;36.30;47.90
45137;DHT22;30894;51.740;19.498;2022-07-29T09:41:00;35.60;48.40
45137;DHT22;30894;51.740;19.498;2022-07-29T09:43:27;35.00;49.00
45137;DHT22;30894;51.740;19.498;2022-07-29T09:45:54;34.80;49.30
45137;DHT22;30894;51.740;19.498;2022-07-29T09:48:22;34.60;50.20
45137;DHT22;30894;51.740;19.498;2022-07-29T09:50:51;34.50;49.50
45137;DHT22;30894;51.740;19.498;2022-07-29T09:53:37;34.30;49.70
45137;DHT22;30894;51.740;19.498;2022-07-29T09:56:04;34.00;49.90
45137;DHT22;30894;51.740;19.498;2022-07-29T09:58:30;33.60;50.00
45137;DHT22;30894;51.740;19.498;2022-07-29T13:30:35;36.30;46.30
45137;DHT22;30894;51.740;19.498;2022-07-29T13:33:01;35.60;46.50
45137;DHT22;30894;51.740;19.498;2022-07-29T13:35:28;35.20;46.60
45137;DHT22;30894;51.740;19.498;2022-07-29T13:37:55;34.80;47.10
45137;DHT22;30894;51.740;19.498;2022-07-29T13:40:21;34.40;47.40
45137;DHT22;30894;51.740;19.498;2022-07-29T13:42:47;34.10;47.70
45137;DHT22;30894;51.740;19.498;2022-07-29T13:45:13;33.80;47.90
45137;DHT22;30894;51.740;19.498;2022-07-29T13:47:39;33.70;48.10
45137;DHT22;30894;51.740;19.498;2022-07-29T13:50:07;33.60;48.10
45137;DHT22;30894;51.740;19.498;2022-07-29T13:52:35;33.50;48.30
45137;DHT22;30894;51.740;19.498;2022-07-29T13:55:02;33.40;48.40
45137;DHT22;30894;51.740;19.498;2022-07-29T13:57:29;33.00;48.50
45137;DHT22;30894;51.740;19.498;2022-07-29T13:59:56;32.80;48.80
45137;DHT22;30894;51.740;19.498;2022-07-29T14:02:23;32.50;49.00
45137;DHT22;30894;51.740;19.498;2022-07-29T14:04:49;32.20;49.30
45137;DHT22;30894;51.740;19.498;2022-07-29T14:07:15;31.90;49.40
45137;DHT22;30894;51.740;19.498;2022-07-29T14:09:41;31.70;49.70
45137;DHT22;30894;51.740;19.498;2022-07-29T14:12:07;31.40;49.80
45137;DHT22;30894;51.740;19.498;2022-07-29T14:14:33;31.30;50.00
45137;DHT22;30894;51.740;19.498;2022-07-29T14:17:01;31.10;50.00
45137;DHT22;30894;51.740;19.498;2022-07-29T14:19:28;31.00;50.10
45137;DHT22;30894;51.740;19.498;2022-07-29T14:21:54;30.90;50.20
45137;DHT22;30894;51.740;19.498;2022-07-29T14:24:20;30.80;50.30
45137;DHT22;30894;51.740;19.498;2022-07-29T14:26:46;30.70;50.30
45137;DHT22;30894;51.740;19.498;2022-07-29T14:29:12;30.60;50.50
45137;DHT22;30894;51.740;19.498;2022-07-29T14:31:38;30.50;50.60
45137;DHT22;30894;51.740;19.498;2022-07-29T14:34:04;30.40;50.60
45137;DHT22;30894;51.740;19.498;2022-07-29T14:36:30;30.40;50.60
45137;DHT22;30894;51.740;19.498;2022-07-29T14:38:57;30.40;50.50
45137;DHT22;30894;51.740;19.498;2022-07-29T14:41:24;30.60;50.40
45137;DHT22;30894;51.740;19.498;2022-07-29T14:43:50;30.70;50.20
45137;DHT22;30894;51.740;19.498;2022-07-29T14:46:19;30.90;50.10
45137;DHT22;30894;51.740;19.498;2022-07-29T14:48:44;30.90;49.90
45137;DHT22;30894;51.740;19.498;2022-07-29T14:51:10;30.90;49.90
45137;DHT22;30894;51.740;19.498;2022-07-29T14:53:37;30.90;49.90
45137;DHT22;30894;51.740;19.498;2022-07-29T14:56:04;30.90;49.90
45137;DHT22;30894;51.740;19.498;2022-07-29T14:58:31;31.00;49.80
45137;DHT22;30894;51.740;19.498;2022-07-29T15:00:57;31.00;49.80
45137;DHT22;30894;51.740;19.498;2022-07-29T15:03:23;30.90;49.80
45137;DHT22;30894;51.740;19.498;2022-07-29T15:05:49;30.80;49.90
45137;DHT22;30894;51.740;19.498;2022-07-29T15:08:16;30.80;50.00
45137;DHT22;30894;51.740;19.498;2022-07-29T15:10:42;30.80;50.00
45137;DHT22;30894;51.740;19.498;2022-07-29T15:13:08;30.70;50.00
45137;DHT22;30894;51.740;19.498;2022-07-29T15:15:34;30.50;50.10
45137;DHT22;30894;51.740;19.498;2022-07-29T15:18:00;30.30;50.30
45137;DHT22;30894;51.740;19.498;2022-07-29T15:20:26;30.10;50.40
45137;DHT22;30894;51.740;19.498;2022-07-29T15:22:53;30.00;50.50
45137;DHT22;30894;51.740;19.498;2022-07-29T15:25:22;29.90;50.70
45137;DHT22;30894;51.740;19.498;2022-07-29T15:27:48;30.00;50.80
45137;DHT22;30894;51.740;19.498;2022-07-29T15:30:14;30.10;50.50
45137;DHT22;30894;51.740;19.498;2022-07-29T15:32:44;30.20;50.50
45137;DHT22;30894;51.740;19.498;2022-07-29T15:35:10;30.10;50.40
45137;DHT22;30894;51.740;19.498;2022-07-29T15:37:39;30.10;50.40
45137;DHT22;30894;51.740;19.498;2022-07-29T15:40:06;30.10;50.40
45137;DHT22;30894;51.740;19.498;2022-07-29T15:42:35;30.10;50.40
45137;DHT22;30894;51.740;19.498;2022-07-29T15:45:03;30.10;50.40
45137;DHT22;30894;51.740;19.498;2022-07-29T15:47:29;30.10;50.40
45137;DHT22;30894;51.740;19.498;2022-07-29T15:49:55;30.10;50.40
45137;DHT22;30894;51.740;19.498;2022-07-29T15:52:22;30.30;50.60
45137;DHT22;30894;51.740;19.498;2022-07-29T15:54:48;30.90;50.00
45137;DHT22;30894;51.740;19.498;2022-07-29T15:57:14;30.90;49.70
45137;DHT22;30894;51.740;19.498;2022-07-29T15:59:41;30.50;50.00
45137;DHT22;30894;51.740;19.498;2022-07-29T16:02:07;30.10;50.40
45137;DHT22;30894;51.740;19.498;2022-07-29T16:04:33;29.70;50.80
45137;DHT22;30894;51.740;19.498;2022-07-29T16:06:59;29.40;51.10
45137;DHT22;30894;51.740;19.498;2022-07-29T16:09:25;29.20;51.40
45137;DHT22;30894;51.740;19.498;2022-07-29T16:11:51;28.90;51.60
45137;DHT22;30894;51.740;19.498;2022-07-29T16:14:19;28.70;51.90
45137;DHT22;30894;51.740;19.498;2022-07-29T16:16:45;28.50;52.10
45137;DHT22;30894;51.740;19.498;2022-07-29T16:19:11;28.40;52.20
45137;DHT22;30894;51.740;19.498;2022-07-29T16:21:37;28.30;52.30
45137;DHT22;30894;51.740;19.498;2022-07-29T16:24:04;28.30;52.30
45137;DHT22;30894;51.740;19.498;2022-07-29T16:26:31;28.20;52.20
45137;DHT22;30894;51.740;19.498;2022-07-29T16:28:58;28.30;52.30
45137;DHT22;30894;51.740;19.498;2022-07-29T16:31:25;28.30;52.20
45137;DHT22;30894;51.740;19.498;2022-07-29T16:33:52;28.20;52.10
45137;DHT22;30894;51.740;19.498;2022-07-29T16:36:18;28.10;52.20
45137;DHT22;30894;51.740;19.498;2022-07-29T16:38:45;28.00;52.40
45137;DHT22;30894;51.740;19.498;2022-07-29T16:41:11;27.80;52.50
45137;DHT22;30894;51.740;19.498;2022-07-29T16:43:38;27.70;52.70
45137;DHT22;30894;51.740;19.498;2022-07-29T16:46:06;27.50;52.80
45137;DHT22;30894;51.740;19.498;2022-07-29T16:48:34;27.30;53.00
45137;DHT22;30894;51.740;19.498;2022-07-29T16:51:00;27.20;53.10
45137;DHT22;30894;51.740;19.498;2022-07-29T16:53:26;27.10;53.20
45137;DHT22;30894;51.740;19.498;2022-07-29T16:55:52;27.00;53.30
45137;DHT22;30894;51.740;19.498;2022-07-29T16:58:18;26.90;53.40
45137;DHT22;30894;51.740;19.498;2022-07-29T17:00:44;26.80;53.50
45137;DHT22;30894;51.740;19.498;2022-07-29T17:03:10;26.70;53.60
45137;DHT22;30894;51.740;19.498;2022-07-29T17:05:36;26.60;53.70
45137;DHT22;30894;51.740;19.498;2022-07-29T17:08:01;26.50;53.80
45137;DHT22;30894;51.740;19.498;2022-07-29T17:10:27;26.40;53.90
45137;DHT22;30894;51.740;19.498;2022-07-29T17:12:54;26.20;54.00
45137;DHT22;30894;51.740;19.498;2022-07-29T17:15:20;26.10;54.10
45137;DHT22;30894;51.740;19.498;2022-07-29T17:17:46;26.00;54.30
45137;DHT22;30894;51.740;19.498;2022-07-29T17:20:13;25.90;54.40
45137;DHT22;30894;51.740;19.498;2022-07-29T17:22:39;25.80;54.50
45137;DHT22;30894;51.740;19.498;2022-07-29T17:25:06;25.70;54.60
45137;DHT22;30894;51.740;19.498;2022-07-29T17:27:33;25.50;54.60
45137;DHT22;30894;51.740;19.498;2022-07-29T17:29:59;25.50;54.80
45137;DHT22;30894;51.740;19.498;2022-07-29T17:32:26;25.40;54.80
45137;DHT22;30894;51.740;19.498;2022-07-29T17:34:52;25.30;54.90
45137;DHT22;30894;51.740;19.498;2022-07-29T17:37:18;25.30;55.00
45137;DHT22;30894;51.740;19.498;2022-07-29T17:39:44;25.20;55.10
45137;DHT22;30894;51.740;19.498;2022-07-29T17:42:12;25.10;55.10
45137;DHT22;30894;51.740;19.498;2022-07-29T17:44:39;25.00;55.30
45137;DHT22;30894;51.740;19.498;2022-07-29T17:47:06;24.90;55.40
45137;DHT22;30894;51.740;19.498;2022-07-29T17:49:32;24.80;55.60
45137;DHT22;30894;51.740;19.498;2022-07-29T17:51:58;24.70;55.60
45137;DHT22;30894;51.740;19.498;2022-07-29T17:54:24;24.50;55.70
45137;DHT22;30894;51.740;19.498;2022-07-29T17:56:50;24.50;55.90
45137;DHT22;30894;51.740;19.498;2022-07-29T17:59:16;24.30;56.00
45137;DHT22;30894;51.740;19.498;2022-07-29T18:01:42;24.20;56.20
45137;DHT22;30894;51.740;19.498;2022-07-29T18:04:09;24.10;56.30
45137;DHT22;30894;51.740;19.498;2022-07-29T18:06:36;24.10;56.40
45137;DHT22;30894;51.740;19.498;2022-07-29T18:09:04;24.00;56.60
45137;DHT22;30894;51.740;19.498;2022-07-29T18:11:30;23.90;56.60
45137;DHT22;30894;51.740;19.498;2022-07-29T18:13:57;23.90;56.70
45137;DHT22;30894;51.740;19.498;2022-07-29T18:16:22;23.80;56.70
45137;DHT22;30894;51.740;19.498;2022-07-29T18:18:49;23.70;56.80
45137;DHT22;30894;51.740;19.498;2022-07-29T18:21:15;23.60;56.80
45137;DHT22;30894;51.740;19.498;2022-07-29T18:23:41;23.60;57.00
45137;DHT22;30894;51.740;19.498;2022-07-29T18:26:08;23.50;57.00
45137;DHT22;30894;51.740;19.498;2022-07-29T18:28:34;23.50;57.80
45137;DHT22;30894;51.740;19.498;2022-07-29T18:31:00;23.40;57.30
45137;DHT22;30894;51.740;19.498;2022-07-29T18:33:27;23.30;57.30
45137;DHT22;30894;51.740;19.498;2022-07-29T18:35:52;23.30;57.40
45137;DHT22;30894;51.740;19.498;2022-07-29T18:38:18;23.20;57.50
45137;DHT22;30894;51.740;19.498;2022-07-29T18:40:46;23.10;57.50
45137;DHT22;30894;51.740;19.498;2022-07-29T18:43:13;23.10;57.60
45137;DHT22;30894;51.740;19.498;2022-07-29T18:45:39;23.00;57.70
45137;DHT22;30894;51.740;19.498;2022-07-29T18:48:05;23.00;57.70
45137;DHT22;30894;51.740;19.498;2022-07-29T18:50:33;22.90;57.80
45137;DHT22;30894;51.740;19.498;2022-07-29T18:53:00;22.90;57.90
45137;DHT22;30894;51.740;19.498;2022-07-29T18:55:28;22.80;57.90
45137;DHT22;30894;51.740;19.498;2022-07-29T18:57:54;22.70;58.00
45137;DHT22;30894;51.740;19.498;2022-07-29T19:00:20;22.70;58.10
45137;DHT22;30894;51.740;19.498;2022-07-29T19:02:47;22.60;58.20
45137;DHT22;30894;51.740;19.498;2022-07-29T19:05:13;22.50;58.20
45137;DHT22;30894;51.740;19.498;2022-07-29T19:07:38;22.50;58.30